createdAt,value
2018-12-14T00:02:44.797Z,44.64
2018-12-14T00:07:47.292Z,44.25
2018-12-14T00:12:49.889Z,44.24
2018-12-14T00:17:52.401Z,44.44
2018-12-14T00:22:54.968Z,44.78
2018-12-14T00:27:57.465Z,44.76
2018-12-14T00:33:00.060Z,44.45
2018-12-14T00:38:02.552Z,44.88
2018-12-14T00:43:05.456Z,44.44
2018-12-14T00:48:08.050Z,44.50
2018-12-14T00:53:10.640Z,44.42
2018-12-14T00:58:13.124Z,44.81
2018-12-14T01:03:15.627Z,44.51
2018-12-14T01:08:18.105Z,44.87
2018-12-14T01:13:20.620Z,44.97
2018-12-14T01:18:23.129Z,44.81
2018-12-14T01:23:25.692Z,44.43
2018-12-14T01:28:29.624Z,44.89
2018-12-14T01:33:32.113Z,44.52
2018-12-14T01:38:34.625Z,44.64
2018-12-14T01:43:37.200Z,44.96
2018-12-14T01:48:39.893Z,45.11
2018-12-14T01:53:42.384Z,44.83
2018-12-14T01:58:44.981Z,44.55
2018-12-14T02:03:47.473Z,44.65
2018-12-14T02:08:50.065Z,44.60
2018-12-14T02:13:52.550Z,44.76
2018-12-14T02:18:55.152Z,44.90
2018-12-14T02:23:58.262Z,45.03
2018-12-14T02:29:00.753Z,44.99
2018-12-14T02:34:03.353Z,44.89
2018-12-14T02:39:06.144Z,44.78
2018-12-14T02:44:08.741Z,45.17
2018-12-14T02:49:11.333Z,44.69
2018-12-14T02:54:13.924Z,44.90
2018-12-14T02:59:16.414Z,45.24
2018-12-14T03:04:19.012Z,44.84
2018-12-14T03:09:21.505Z,45.12
2018-12-14T03:14:24.121Z,45.06
2018-12-14T03:19:26.699Z,45.18
2018-12-14T03:24:29.180Z,45.12
2018-12-14T03:29:31.682Z,44.79
2018-12-14T03:34:34.270Z,44.77
2018-12-14T03:39:36.791Z,44.93
2018-12-14T03:44:39.304Z,45.07
2018-12-14T03:49:41.842Z,44.92
2018-12-14T03:54:44.342Z,45.55
2018-12-14T03:59:47.453Z,45.18
2018-12-14T04:04:50.045Z,45.46
2018-12-14T04:09:52.639Z,45.34
2018-12-14T04:14:55.340Z,44.98
2018-12-14T04:19:57.821Z,44.94
2018-12-14T04:25:00.313Z,45.20
2018-12-14T04:30:03.205Z,45.01
2018-12-14T04:35:05.915Z,45.01
2018-12-14T04:40:09.254Z,44.92
2018-12-14T04:45:11.774Z,45.00
2018-12-14T04:50:14.542Z,45.60
2018-12-14T04:55:17.012Z,45.82
2018-12-14T05:00:19.508Z,45.73
2018-12-14T05:05:22.269Z,45.23
2018-12-14T05:10:24.894Z,45.65
2018-12-14T05:15:27.385Z,45.16
2018-12-14T05:20:29.893Z,45.05
2018-12-14T05:25:32.365Z,45.40
2018-12-14T05:30:35.488Z,45.03
2018-12-14T05:35:37.970Z,45.42
2018-12-14T05:40:40.450Z,45.06
2018-12-14T05:45:42.924Z,45.07
2018-12-14T05:50:45.558Z,45.01
2018-12-14T05:55:48.036Z,45.40
2018-12-14T06:00:50.580Z,45.26
2018-12-14T06:05:53.736Z,45.06
2018-12-14T06:10:56.201Z,45.50
2018-12-14T06:15:58.984Z,45.16
2018-12-14T06:21:01.479Z,45.39
2018-12-14T06:26:04.010Z,45.22
2018-12-14T06:31:06.505Z,45.42
2018-12-14T06:36:09.229Z,45.35
2018-12-14T06:41:11.700Z,45.40
2018-12-14T06:46:14.169Z,45.23
2018-12-14T06:51:16.654Z,44.93
2018-12-14T06:56:19.125Z,45.28
2018-12-14T07:01:21.620Z,44.91
2018-12-14T07:06:24.090Z,45.41
2018-12-14T07:11:26.589Z,45.34
2018-12-14T07:16:29.137Z,45.34
2018-12-14T07:21:31.643Z,44.94
2018-12-14T07:26:34.561Z,45.05
2018-12-14T07:31:37.053Z,44.92
2018-12-14T07:36:39.612Z,45.09
2018-12-14T07:41:42.121Z,45.00
2018-12-14T07:46:44.700Z,44.93
2018-12-14T07:51:47.221Z,33.82
2018-12-14T07:56:49.705Z,31.19
2018-12-14T08:01:52.265Z,31.21
2018-12-14T08:06:55.577Z,33.16
2018-12-14T08:11:58.082Z,35.00
2018-12-14T08:17:00.569Z,35.50
2018-12-14T08:22:03.173Z,36.62
2018-12-14T08:27:05.762Z,37.47
2018-12-14T08:32:08.261Z,37.96
2018-12-14T08:37:10.752Z,38.41
2018-12-14T08:42:13.336Z,39.20
2018-12-14T08:47:15.828Z,39.56
2018-12-14T08:52:19.149Z,39.63
2018-12-14T08:57:21.737Z,39.78
2018-12-14T09:02:24.338Z,39.65
2018-12-14T09:07:26.925Z,39.84
2018-12-14T09:12:29.628Z,40.03
2018-12-14T09:17:32.218Z,40.04
2018-12-14T09:22:34.817Z,40.26
2018-12-14T09:27:37.409Z,39.51
2018-12-14T09:32:40.107Z,40.25
2018-12-14T09:37:42.692Z,40.08
2018-12-14T09:42:45.190Z,39.94
2018-12-14T09:47:47.672Z,40.11
2018-12-14T09:52:50.168Z,40.43
2018-12-14T09:57:52.764Z,40.74
2018-12-14T10:02:55.277Z,40.80
2018-12-14T10:07:57.859Z,41.96
2018-12-14T10:13:00.449Z,42.21
2018-12-14T10:18:02.966Z,42.64
2018-12-14T10:23:05.484Z,43.74
2018-12-14T10:28:08.001Z,43.68
2018-12-14T10:33:10.622Z,44.47
2018-12-14T10:38:13.209Z,44.50
2018-12-14T10:43:15.806Z,45.53
2018-12-14T10:48:18.401Z,45.26
2018-12-14T10:53:20.890Z,44.80
2018-12-14T10:58:23.407Z,45.37
2018-12-14T11:03:25.909Z,45.22
2018-12-14T11:08:28.572Z,44.72
2018-12-14T11:13:31.101Z,44.66
2018-12-14T11:18:33.629Z,44.74
2018-12-14T11:23:36.353Z,45.04
2018-12-14T11:28:38.865Z,44.88
2018-12-14T11:33:41.442Z,44.64
2018-12-14T11:38:44.193Z,45.21
2018-12-14T11:43:47.195Z,44.80
2018-12-14T11:48:49.672Z,45.19
2018-12-14T11:53:52.152Z,44.96
2018-12-14T11:58:54.648Z,45.07
2018-12-14T12:03:57.130Z,45.31
2018-12-14T12:08:59.704Z,45.04
2018-12-14T12:14:02.249Z,44.89
2018-12-14T12:19:04.721Z,45.37
2018-12-14T12:24:07.852Z,44.90
2018-12-14T12:29:10.323Z,44.83
2018-12-14T12:34:12.793Z,45.03
2018-12-14T12:39:15.260Z,44.64
2018-12-14T12:44:17.753Z,44.85
2018-12-14T12:49:20.227Z,44.85
2018-12-14T12:54:22.725Z,45.12
2018-12-14T12:59:25.920Z,45.20
2018-12-14T13:04:28.908Z,44.98
2018-12-14T13:09:31.544Z,44.60
2018-12-14T13:14:39.854Z,44.62
2018-12-14T13:19:38.541Z,44.83
2018-12-14T13:24:41.173Z,44.70
2018-12-14T13:29:43.969Z,44.66
2018-12-14T13:34:46.432Z,44.68
2018-12-14T13:39:48.916Z,45.11
2018-12-14T13:44:51.725Z,44.58
2018-12-14T13:49:54.477Z,44.90
2018-12-14T13:54:57.036Z,45.07
2018-12-14T13:59:59.516Z,44.88
2018-12-14T14:05:02.207Z,45.08
2018-12-14T14:10:06.553Z,45.10
2018-12-14T14:15:09.785Z,44.56
2018-12-14T14:20:12.281Z,45.05
2018-12-14T14:25:17.408Z,45.06
2018-12-14T14:30:19.709Z,44.90
2018-12-14T14:35:22.181Z,44.97
2018-12-14T14:40:24.649Z,45.01
2018-12-14T14:45:27.577Z,45.05
2018-12-14T14:50:30.058Z,45.13
2018-12-14T14:55:32.533Z,45.29
2018-12-14T15:00:35.024Z,45.90
2018-12-14T15:05:37.516Z,45.79
2018-12-14T15:10:40.004Z,45.50
2018-12-14T15:15:42.473Z,45.67
2018-12-14T15:20:44.941Z,45.32
2018-12-14T15:25:47.457Z,45.27
2018-12-14T15:30:49.936Z,45.27
2018-12-14T15:35:52.438Z,45.33
2018-12-14T15:40:54.936Z,45.38
2018-12-14T15:45:57.436Z,45.56
2018-12-14T15:50:59.937Z,45.72
2018-12-14T15:56:02.870Z,45.79
2018-12-14T16:01:05.825Z,45.77
2018-12-14T16:06:08.349Z,45.75
2018-12-14T16:11:10.869Z,45.57
2018-12-14T16:16:13.373Z,45.70
2018-12-14T16:21:15.893Z,45.50
2018-12-14T16:26:18.401Z,45.77
2018-12-14T16:31:20.901Z,45.63
2018-12-14T16:36:23.366Z,45.67
2018-12-14T16:41:26.141Z,45.98
2018-12-14T16:46:28.637Z,45.94
2018-12-14T16:51:31.129Z,45.60
2018-12-14T16:56:33.685Z,45.80
2018-12-14T17:01:36.313Z,46.02
2018-12-14T17:06:38.844Z,45.74
2018-12-14T17:11:41.389Z,46.02
2018-12-14T17:16:43.924Z,46.10
2018-12-14T17:21:47.011Z,46.27
2018-12-14T17:26:49.485Z,46.14
2018-12-14T17:31:52.013Z,46.92
2018-12-14T17:36:54.589Z,46.61
2018-12-14T17:41:57.209Z,47.34
2018-12-14T17:46:59.705Z,47.28
2018-12-14T17:52:02.231Z,47.86
2018-12-14T17:57:04.729Z,47.67
2018-12-14T18:02:08.084Z,47.53
2018-12-14T18:07:10.565Z,47.51
2018-12-14T18:12:13.725Z,47.74
2018-12-14T18:17:16.208Z,48.09
2018-12-14T18:22:18.906Z,48.25
2018-12-14T18:27:21.400Z,48.02
2018-12-14T18:32:23.933Z,47.82
2018-12-14T18:37:27.273Z,47.93
2018-12-14T18:42:29.873Z,47.57
2018-12-14T18:47:32.428Z,47.27
2018-12-14T18:52:35.008Z,47.01
2018-12-14T18:57:37.472Z,46.89
2018-12-14T19:02:40.421Z,47.07
2018-12-14T19:07:43.149Z,46.69
2018-12-14T19:12:45.685Z,47.04
2018-12-14T19:17:48.321Z,46.48
2018-12-14T19:22:50.824Z,46.53
2018-12-14T19:27:53.393Z,46.70
2018-12-14T19:32:55.909Z,46.83
2018-12-14T19:37:59.277Z,46.49
2018-12-14T19:43:01.797Z,46.25
2018-12-14T19:48:04.297Z,46.84
2018-12-14T19:53:06.806Z,46.57
2018-12-14T19:58:09.356Z,46.76
2018-12-14T20:03:11.848Z,47.32
2018-12-14T20:08:14.436Z,47.36
2018-12-14T20:13:16.956Z,47.51
2018-12-14T20:18:19.529Z,47.24
2018-12-14T20:23:22.224Z,46.67
2018-12-14T20:28:24.716Z,46.97
2018-12-14T20:33:27.203Z,46.50
2018-12-14T20:38:29.696Z,46.63
2018-12-14T20:43:32.195Z,46.85
2018-12-14T20:48:34.780Z,46.64
2018-12-14T20:53:37.381Z,46.79
2018-12-14T20:58:39.872Z,46.78
2018-12-14T21:03:42.418Z,46.40
2018-12-14T21:08:45.156Z,46.67
2018-12-14T21:13:47.657Z,46.82
2018-12-14T21:18:50.148Z,46.89
2018-12-14T21:23:52.641Z,46.83
2018-12-14T21:28:55.285Z,46.60
2018-12-14T21:33:57.825Z,46.47
2018-12-14T21:39:00.328Z,46.29
2018-12-14T21:44:02.841Z,46.76
2018-12-14T21:49:05.404Z,46.66
2018-12-14T21:54:07.995Z,46.74
2018-12-14T21:59:10.594Z,46.79
2018-12-14T22:04:13.105Z,46.69
2018-12-14T22:09:15.585Z,46.31
2018-12-14T22:14:18.169Z,46.28
2018-12-14T22:19:20.761Z,46.71
2018-12-14T22:24:23.258Z,46.32
2018-12-14T22:29:26.377Z,46.39
2018-12-14T22:34:28.861Z,46.47
2018-12-14T22:39:31.771Z,46.25
2018-12-14T22:44:34.348Z,46.23
2018-12-14T22:49:36.946Z,46.35
2018-12-14T22:54:39.641Z,46.81
2018-12-14T22:59:42.128Z,46.46
2018-12-14T23:04:44.621Z,46.81
2018-12-14T23:09:47.089Z,46.52
2018-12-14T23:14:49.565Z,46.40
2018-12-14T23:19:52.994Z,46.78
2018-12-14T23:24:55.617Z,46.65
2018-12-14T23:29:58.113Z,46.40
2018-12-14T23:35:00.618Z,46.49
2018-12-14T23:40:04.160Z,46.31
2018-12-14T23:45:06.662Z,46.80
2018-12-14T23:50:09.160Z,46.84
2018-12-14T23:55:11.661Z,46.49
